createdAt,value
2023-05-18T00:01:25.535Z,49.52
2023-05-18T00:03:54.217Z,49.44
2023-05-18T00:06:22.486Z,50.24
2023-05-18T00:08:49.260Z,49.68
2023-05-18T00:11:16.223Z,50.12
2023-05-18T00:13:43.288Z,51.13
2023-05-18T00:16:12.017Z,51.10
2023-05-18T00:18:38.727Z,50.39
2023-05-18T00:21:06.374Z,51.63
2023-05-18T00:23:33.246Z,51.03
2023-05-18T00:26:01.430Z,50.45
2023-05-18T00:28:29.390Z,50.57
2023-05-18T00:30:56.872Z,51.35
2023-05-18T00:33:23.734Z,51.16
2023-05-18T00:35:50.602Z,51.55
2023-05-18T00:38:17.916Z,51.29
2023-05-18T00:40:44.773Z,52.17
2023-05-18T00:43:12.483Z,51.29
2023-05-18T00:45:39.957Z,51.54
2023-05-18T00:48:07.312Z,51.07
2023-05-18T00:50:34.908Z,51.33
2023-05-18T00:53:01.795Z,51.49
2023-05-18T00:55:29.174Z,51.55
2023-05-18T00:58:02.391Z,52.51
2023-05-18T01:00:29.605Z,51.74
2023-05-18T01:02:57.330Z,51.87
2023-05-18T01:05:24.341Z,52.28
2023-05-18T01:07:51.304Z,52.07
2023-05-18T01:10:20.644Z,52.15
2023-05-18T01:12:57.297Z,52.44
2023-05-18T01:15:34.832Z,52.71
2023-05-18T01:18:05.349Z,51.84
2023-05-18T01:20:45.975Z,52.83
2023-05-18T01:23:45.580Z,52.55
2023-05-18T01:26:17.097Z,52.91
2023-05-18T01:28:46.768Z,52.52
2023-05-18T01:31:16.264Z,53.37
2023-05-18T01:33:44.470Z,53.02
2023-05-18T01:36:11.575Z,53.57
2023-05-18T01:38:41.050Z,53.82
2023-05-18T01:41:18.156Z,53.50
2023-05-18T01:44:18.525Z,53.41
2023-05-18T01:46:54.735Z,53.35
2023-05-18T01:49:24.511Z,53.66
2023-05-18T01:51:53.401Z,53.85
2023-05-18T01:54:22.775Z,53.34
2023-05-18T01:56:52.097Z,54.30
2023-05-18T01:59:19.076Z,54.12
2023-05-18T02:01:45.893Z,54.64
2023-05-18T02:04:12.786Z,54.90
2023-05-18T02:06:39.758Z,54.62
2023-05-18T02:09:09.009Z,54.56
2023-05-18T02:11:35.893Z,54.18
2023-05-18T02:14:02.944Z,54.85
2023-05-18T02:16:29.787Z,54.61
2023-05-18T02:18:58.113Z,55.06
2023-05-18T02:21:25.968Z,54.89
2023-05-18T02:23:52.700Z,54.95
2023-05-18T02:26:19.474Z,55.75
2023-05-18T02:28:53.032Z,55.17
2023-05-18T02:31:19.918Z,55.40
2023-05-18T02:33:46.693Z,55.76
2023-05-18T02:36:14.386Z,56.13
2023-05-18T02:38:43.841Z,56.15
2023-05-18T02:41:12.082Z,56.67
2023-05-18T02:43:39.019Z,56.28
2023-05-18T02:46:07.557Z,57.40
2023-05-18T02:48:34.525Z,56.96
2023-05-18T02:51:01.263Z,56.90
2023-05-18T02:53:27.982Z,57.90
2023-05-18T02:56:03.287Z,58.08
2023-05-18T02:58:39.134Z,58.36
2023-05-18T03:01:39.986Z,58.73
2023-05-18T03:04:07.347Z,58.57
2023-05-18T03:06:38.340Z,58.18
2023-05-18T03:09:05.200Z,58.38
2023-05-18T03:11:36.687Z,57.83
2023-05-18T03:14:03.704Z,58.15
2023-05-18T03:16:30.533Z,58.53
2023-05-18T03:19:02.297Z,58.26
2023-05-18T03:21:36.110Z,58.13
2023-05-18T03:24:03.594Z,58.23
2023-05-18T03:26:32.067Z,57.44
2023-05-18T03:28:59.556Z,57.63
2023-05-18T03:31:27.127Z,57.54
2023-05-18T03:33:56.257Z,57.63
2023-05-18T03:36:25.336Z,58.44
2023-05-18T03:38:52.833Z,58.32
2023-05-18T03:41:19.973Z,58.75
2023-05-18T03:43:46.729Z,58.34
2023-05-18T03:46:13.697Z,58.11
2023-05-18T03:48:40.685Z,58.89
2023-05-18T03:51:07.763Z,58.85
2023-05-18T03:53:36.237Z,59.31
2023-05-18T03:56:03.104Z,58.83
2023-05-18T03:58:30.128Z,58.57
2023-05-18T04:00:58.938Z,58.60
2023-05-18T04:03:27.090Z,58.15
2023-05-18T04:05:55.666Z,58.76
2023-05-18T04:08:25.461Z,58.86
2023-05-18T04:10:52.553Z,58.78
2023-05-18T04:13:19.256Z,58.12
2023-05-18T04:15:46.001Z,58.68
2023-05-18T04:18:13.683Z,59.19
2023-05-18T04:20:42.609Z,59.91
2023-05-18T04:23:10.111Z,59.88
2023-05-18T04:25:39.300Z,59.70
2023-05-18T04:28:07.272Z,59.77
2023-05-18T04:30:35.405Z,59.65
2023-05-18T04:33:04.116Z,59.50
2023-05-18T04:35:31.982Z,59.15
2023-05-18T04:37:58.945Z,58.95
2023-05-18T04:40:25.897Z,58.57
2023-05-18T04:42:52.950Z,57.99
2023-05-18T04:45:26.101Z,58.06
2023-05-18T04:47:54.760Z,58.10
2023-05-18T04:50:26.251Z,58.24
2023-05-18T04:52:53.997Z,58.03
2023-05-18T04:55:27.491Z,57.49
2023-05-18T04:58:03.107Z,57.69
2023-05-18T05:00:30.995Z,56.48
2023-05-18T05:02:59.355Z,57.43
2023-05-18T05:05:28.567Z,57.47
2023-05-18T05:07:57.492Z,56.76
2023-05-18T05:10:25.508Z,56.27
2023-05-18T05:12:52.677Z,55.58
2023-05-18T05:15:20.398Z,56.25
2023-05-18T05:17:49.888Z,56.64
2023-05-18T05:20:17.237Z,56.15
2023-05-18T05:22:44.119Z,55.81
2023-05-18T05:25:13.129Z,55.56
2023-05-18T05:27:39.824Z,55.66
2023-05-18T05:30:07.430Z,56.65
2023-05-18T05:32:36.716Z,56.17
2023-05-18T05:35:05.362Z,55.41
2023-05-18T05:37:32.675Z,54.90
2023-05-18T05:39:59.507Z,54.57
2023-05-18T05:42:27.375Z,53.96
2023-05-18T05:44:54.133Z,52.99
2023-05-18T05:47:21.537Z,52.45
2023-05-18T05:49:49.379Z,52.05
2023-05-18T05:52:16.692Z,51.31
2023-05-18T05:54:43.549Z,51.16
2023-05-18T05:57:11.435Z,51.37
2023-05-18T05:59:38.394Z,51.22
2023-05-18T06:02:05.630Z,51.22
2023-05-18T06:04:33.103Z,50.80
2023-05-18T06:07:00.823Z,50.26
2023-05-18T06:09:28.932Z,50.29
2023-05-18T06:11:56.595Z,50.21
2023-05-18T06:14:25.013Z,50.07
2023-05-18T06:16:53.435Z,49.93
2023-05-18T06:19:20.388Z,48.78
2023-05-18T06:21:47.244Z,47.90
2023-05-18T06:24:14.386Z,47.45
2023-05-18T06:26:53.646Z,46.97
2023-05-18T06:29:36.428Z,46.90
2023-05-18T06:32:13.597Z,45.73
2023-05-18T06:34:45.719Z,45.42
2023-05-18T06:37:12.994Z,46.34
2023-05-18T06:39:40.308Z,46.31
2023-05-18T06:42:07.551Z,45.31
2023-05-18T06:44:35.870Z,44.31
2023-05-18T06:47:07.980Z,44.14
2023-05-18T06:49:34.784Z,44.49
2023-05-18T06:52:01.475Z,43.89
2023-05-18T06:54:32.089Z,43.98
2023-05-18T06:56:59.883Z,43.95
2023-05-18T06:59:26.654Z,44.06
2023-05-18T07:01:54.181Z,43.05
2023-05-18T07:04:21.303Z,42.32
2023-05-18T07:06:48.796Z,42.98
2023-05-18T07:09:15.729Z,42.77
2023-05-18T07:11:42.685Z,45.56
2023-05-18T07:14:09.864Z,42.44
2023-05-18T07:16:37.065Z,45.24
2023-05-18T07:19:04.954Z,41.78
2023-05-18T07:21:31.924Z,41.34
2023-05-18T07:23:58.986Z,41.67
2023-05-18T07:26:26.154Z,42.19
2023-05-18T07:28:53.019Z,41.29
2023-05-18T07:31:21.757Z,41.56
2023-05-18T07:33:49.824Z,41.18
2023-05-18T07:36:16.914Z,40.93
2023-05-18T07:38:44.114Z,41.06
2023-05-18T07:41:11.006Z,42.78
2023-05-18T07:43:38.001Z,41.56
2023-05-18T07:46:04.810Z,41.18
2023-05-18T07:48:31.576Z,41.36
2023-05-18T07:50:58.440Z,40.40
2023-05-18T07:53:25.239Z,40.95
2023-05-18T07:55:53.076Z,42.46
2023-05-18T07:58:19.955Z,40.21
2023-05-18T08:00:46.803Z,40.27
2023-05-18T08:03:13.687Z,40.25
2023-05-18T08:05:40.753Z,39.13
2023-05-18T08:08:08.180Z,39.80
2023-05-18T08:10:35.025Z,40.27
2023-05-18T08:13:01.887Z,38.32
2023-05-18T08:15:29.189Z,38.22
2023-05-18T08:17:57.102Z,36.73
2023-05-18T08:20:26.185Z,38.59
2023-05-18T08:22:52.962Z,37.86
2023-05-18T08:25:19.870Z,38.29
2023-05-18T08:27:46.651Z,36.68
2023-05-18T08:30:13.943Z,37.02
2023-05-18T08:32:40.943Z,37.51
2023-05-18T08:35:09.170Z,36.85
2023-05-18T08:37:37.251Z,36.24
2023-05-18T08:40:07.987Z,37.37
2023-05-18T08:42:49.817Z,37.34
2023-05-18T08:45:41.600Z,36.71
2023-05-18T08:48:11.497Z,37.04
2023-05-18T08:50:41.762Z,38.74
2023-05-18T08:53:10.673Z,37.11
2023-05-18T08:55:37.928Z,36.88
2023-05-18T08:58:09.182Z,36.83
2023-05-18T09:00:36.925Z,37.02
2023-05-18T09:03:05.311Z,36.61
2023-05-18T09:05:32.549Z,36.25
2023-05-18T09:08:00.536Z,36.53
2023-05-18T09:10:28.048Z,37.71
2023-05-18T09:12:56.202Z,36.11
2023-05-18T09:15:25.289Z,37.13
2023-05-18T09:17:52.493Z,36.62
2023-05-18T09:20:19.953Z,37.71
2023-05-18T09:22:49.374Z,35.95
2023-05-18T09:25:17.662Z,36.60
2023-05-18T09:27:44.457Z,35.76
2023-05-18T09:30:11.973Z,35.46
2023-05-18T09:32:39.164Z,35.18
2023-05-18T09:35:07.543Z,34.94
2023-05-18T09:37:35.286Z,34.95
2023-05-18T09:40:05.345Z,35.35
2023-05-18T09:42:44.095Z,35.56
2023-05-18T09:45:25.586Z,35.93
2023-05-18T09:47:53.628Z,34.63
2023-05-18T09:50:21.244Z,35.51
2023-05-18T09:52:49.314Z,32.96
2023-05-18T09:55:17.525Z,33.57
2023-05-18T09:57:46.425Z,33.07
2023-05-18T10:00:19.165Z,33.73
2023-05-18T10:02:52.640Z,32.95
2023-05-18T10:05:20.573Z,32.75
2023-05-18T10:07:48.441Z,33.24
2023-05-18T10:10:19.541Z,33.97
2023-05-18T10:12:47.980Z,32.59
2023-05-18T10:15:16.329Z,32.57
2023-05-18T10:17:45.223Z,33.28
2023-05-18T10:20:15.893Z,33.48
2023-05-18T10:22:46.017Z,33.48
2023-05-18T10:25:22.619Z,33.32
2023-05-18T10:27:55.493Z,32.99
2023-05-18T10:30:22.982Z,32.72
2023-05-18T10:32:51.351Z,31.81
2023-05-18T10:35:18.781Z,31.94
2023-05-18T10:37:50.122Z,33.92
2023-05-18T10:40:17.649Z,32.32
2023-05-18T10:42:46.306Z,33.07
2023-05-18T10:45:15.596Z,32.87
2023-05-18T10:47:44.171Z,32.57
2023-05-18T10:50:11.677Z,31.82
2023-05-18T10:52:38.442Z,32.14
2023-05-18T10:55:06.844Z,32.11
2023-05-18T10:57:40.771Z,32.44
2023-05-18T11:00:09.394Z,32.93
2023-05-18T11:02:42.201Z,32.43
2023-05-18T11:05:12.437Z,32.06
2023-05-18T11:07:39.261Z,32.17
2023-05-18T11:10:12.415Z,33.17
2023-05-18T11:12:40.784Z,33.01
2023-05-18T11:15:08.260Z,33.26
2023-05-18T11:17:34.938Z,33.32
2023-05-18T11:20:07.871Z,32.63
2023-05-18T11:22:56.756Z,32.90
2023-05-18T11:25:26.156Z,33.72
2023-05-18T11:27:53.880Z,33.60
2023-05-18T11:30:44.961Z,32.05
2023-05-18T11:33:14.485Z,32.09
2023-05-18T11:36:04.553Z,33.42
2023-05-18T11:38:55.147Z,32.80
2023-05-18T11:41:35.254Z,32.38
2023-05-18T11:44:16.837Z,32.43
2023-05-18T11:46:56.076Z,33.55
2023-05-18T11:49:28.429Z,32.79
2023-05-18T11:52:18.665Z,32.47
2023-05-18T11:54:56.398Z,32.62
2023-05-18T11:57:34.807Z,32.38
2023-05-18T12:00:10.228Z,32.46
2023-05-18T12:02:43.827Z,34.05
2023-05-18T12:05:10.793Z,33.45
2023-05-18T12:07:39.235Z,33.44
2023-05-18T12:10:10.955Z,33.46
2023-05-18T12:12:38.140Z,33.47
2023-05-18T12:15:06.863Z,33.88
2023-05-18T12:17:43.106Z,33.36
2023-05-18T12:20:14.568Z,35.02
2023-05-18T12:22:45.201Z,34.56
2023-05-18T12:25:12.039Z,33.78
2023-05-18T12:27:40.681Z,32.93
2023-05-18T12:30:14.602Z,33.03
2023-05-18T12:32:57.641Z,33.01
2023-05-18T12:35:25.802Z,32.71
2023-05-18T12:37:55.925Z,33.12
2023-05-18T12:40:23.256Z,33.50
2023-05-18T12:42:56.850Z,33.45
2023-05-18T12:45:27.801Z,34.12
2023-05-18T12:47:55.508Z,32.94
2023-05-18T12:50:27.664Z,33.27
2023-05-18T12:52:56.153Z,33.25
2023-05-18T12:55:25.004Z,32.67
2023-05-18T12:58:15.864Z,31.86
2023-05-18T13:00:47.805Z,32.05
2023-05-18T13:03:16.872Z,32.24
2023-05-18T13:05:46.119Z,33.03
2023-05-18T13:08:19.112Z,31.97
2023-05-18T13:10:46.247Z,31.68
2023-05-18T13:13:16.660Z,32.74
2023-05-18T13:15:44.097Z,32.23
2023-05-18T13:18:11.779Z,31.57
2023-05-18T13:20:45.133Z,32.04
2023-05-18T13:23:14.017Z,31.41
2023-05-18T13:25:41.286Z,31.97
2023-05-18T13:28:10.560Z,32.00
2023-05-18T13:30:38.298Z,31.97
2023-05-18T13:33:08.159Z,32.24
2023-05-18T13:35:40.301Z,32.09
2023-05-18T13:38:06.844Z,31.42
2023-05-18T13:40:33.455Z,30.58
2023-05-18T13:43:00.126Z,30.69
2023-05-18T13:45:26.652Z,30.95
2023-05-18T13:47:56.900Z,30.72
2023-05-18T13:50:23.908Z,31.41
2023-05-18T13:52:50.586Z,30.64
2023-05-18T13:55:17.138Z,30.71
2023-05-18T13:57:44.971Z,29.58
2023-05-18T14:00:13.457Z,29.59
2023-05-18T14:02:41.540Z,29.58
2023-05-18T14:05:09.665Z,29.52
2023-05-18T14:07:41.488Z,29.57
2023-05-18T14:10:09.965Z,29.20
2023-05-18T14:12:37.236Z,29.64
2023-05-18T14:15:05.673Z,28.70
2023-05-18T14:17:35.521Z,28.78
2023-05-18T14:20:02.721Z,29.46
2023-05-18T14:22:30.584Z,29.45
2023-05-18T14:24:57.590Z,28.77
2023-05-18T14:27:24.182Z,27.96
2023-05-18T14:29:51.132Z,27.22
2023-05-18T14:32:20.686Z,27.13
2023-05-18T14:34:51.561Z,27.81
2023-05-18T14:37:18.866Z,27.89
2023-05-18T14:39:45.726Z,27.51
2023-05-18T14:42:12.251Z,27.63
2023-05-18T14:44:38.810Z,26.97
2023-05-18T14:47:05.728Z,26.37
2023-05-18T14:49:32.328Z,26.11
2023-05-18T14:51:58.931Z,24.40
2023-05-18T14:54:25.678Z,23.08
2023-05-18T14:56:52.342Z,21.78
2023-05-18T14:59:18.970Z,21.11
2023-05-18T15:01:45.694Z,22.49
2023-05-18T15:04:14.570Z,23.68
2023-05-18T15:06:41.439Z,22.44
2023-05-18T15:09:08.362Z,20.74
2023-05-18T15:11:34.968Z,18.63
2023-05-18T15:14:01.540Z,17.12
2023-05-18T15:16:28.249Z,16.44
2023-05-18T15:18:55.036Z,16.66
2023-05-18T15:21:21.775Z,17.52
2023-05-18T15:23:48.311Z,18.30
2023-05-18T15:26:14.957Z,18.96
2023-05-18T15:28:43.369Z,18.01
2023-05-18T15:31:09.909Z,16.72
2023-05-18T15:33:41.819Z,17.29
2023-05-18T15:36:08.852Z,17.30
2023-05-18T15:38:35.751Z,18.22
2023-05-18T15:41:02.343Z,20.15
2023-05-18T15:43:30.412Z,21.01
2023-05-18T15:45:58.108Z,24.17
2023-05-18T15:48:24.794Z,24.10
2023-05-18T15:50:51.375Z,23.90
2023-05-18T15:53:17.929Z,24.60
2023-05-18T15:55:44.486Z,25.34
2023-05-18T15:58:12.940Z,25.93
2023-05-18T16:00:39.520Z,25.31
2023-05-18T16:03:06.247Z,24.60
2023-05-18T16:05:32.915Z,26.32
2023-05-18T16:07:59.729Z,26.68
2023-05-18T16:10:26.238Z,26.42
2023-05-18T16:12:52.772Z,25.68
2023-05-18T16:15:24.154Z,26.75
2023-05-18T16:17:50.851Z,27.93
2023-05-18T16:20:18.459Z,26.92
2023-05-18T16:22:46.718Z,27.99
2023-05-18T16:25:13.351Z,26.17
2023-05-18T16:27:39.918Z,27.01
2023-05-18T16:30:07.253Z,27.58
2023-05-18T16:32:33.853Z,27.59
2023-05-18T16:35:01.027Z,28.73
2023-05-18T16:37:27.977Z,28.44
2023-05-18T16:39:54.587Z,28.18
2023-05-18T16:42:22.775Z,27.46
2023-05-18T16:44:49.355Z,27.40
2023-05-18T16:47:16.058Z,27.34
2023-05-18T16:49:45.266Z,27.41
2023-05-18T16:52:11.861Z,26.95
2023-05-18T16:54:38.426Z,26.99
2023-05-18T16:57:05.216Z,27.10
2023-05-18T16:59:34.221Z,27.19
2023-05-18T17:02:01.431Z,26.93
2023-05-18T17:04:28.119Z,27.15
2023-05-18T17:06:54.771Z,27.33
2023-05-18T17:09:21.310Z,27.94
2023-05-18T17:11:48.381Z,28.08
2023-05-18T17:14:15.084Z,28.44
2023-05-18T17:16:41.701Z,28.57
2023-05-18T17:19:08.364Z,28.57
2023-05-18T17:21:35.058Z,28.40
2023-05-18T17:24:01.628Z,28.80
2023-05-18T17:26:30.606Z,28.54
2023-05-18T17:28:57.374Z,28.58
2023-05-18T17:31:24.077Z,29.17
2023-05-18T17:33:50.841Z,29.20
2023-05-18T17:36:18.309Z,29.38
2023-05-18T17:38:45.163Z,29.33
2023-05-18T17:41:11.943Z,29.31
2023-05-18T17:43:38.670Z,29.53
2023-05-18T17:46:05.391Z,29.47
2023-05-18T17:48:31.998Z,29.65
2023-05-18T17:50:58.807Z,29.63
2023-05-18T17:53:25.307Z,29.82
2023-05-18T17:55:52.649Z,29.81
2023-05-18T17:58:19.692Z,28.71
2023-05-18T18:00:46.371Z,28.88
2023-05-18T18:03:13.317Z,29.00
2023-05-18T18:05:40.242Z,29.06
2023-05-18T18:08:07.122Z,29.86
2023-05-18T18:10:34.682Z,29.91
2023-05-18T18:13:03.315Z,30.09
2023-05-18T18:15:30.096Z,29.88
2023-05-18T18:18:00.356Z,30.01
2023-05-18T18:20:27.260Z,30.30
2023-05-18T18:22:53.980Z,30.72
2023-05-18T18:25:20.741Z,30.49
2023-05-18T18:27:47.448Z,30.69
2023-05-18T18:30:14.773Z,31.10
2023-05-18T18:32:41.537Z,30.90
2023-05-18T18:35:09.029Z,31.20
2023-05-18T18:37:36.132Z,31.45
2023-05-18T18:40:03.012Z,31.25
2023-05-18T18:42:30.913Z,31.09
2023-05-18T18:44:57.696Z,31.44
2023-05-18T18:47:25.023Z,31.82
2023-05-18T18:49:51.810Z,31.86
2023-05-18T18:52:18.555Z,31.90
2023-05-18T18:54:45.366Z,31.96
2023-05-18T18:57:12.329Z,32.27
2023-05-18T18:59:39.373Z,32.40
2023-05-18T19:02:06.361Z,32.24
2023-05-18T19:04:33.253Z,32.44
2023-05-18T19:07:02.918Z,32.44
2023-05-18T19:09:32.676Z,32.43
2023-05-18T19:11:59.456Z,32.59
2023-05-18T19:14:26.474Z,32.63
2023-05-18T19:16:53.686Z,32.83
2023-05-18T19:19:20.481Z,33.17
2023-05-18T19:21:47.200Z,33.29
2023-05-18T19:24:13.980Z,33.33
2023-05-18T19:26:40.722Z,33.44
2023-05-18T19:29:07.389Z,33.53
2023-05-18T19:31:35.756Z,33.59
2023-05-18T19:34:02.770Z,33.31
2023-05-18T19:36:29.517Z,33.38
2023-05-18T19:38:56.281Z,33.48
2023-05-18T19:41:24.622Z,33.56
2023-05-18T19:43:51.692Z,34.02
2023-05-18T19:46:19.158Z,33.75
2023-05-18T19:48:46.652Z,33.58
2023-05-18T19:51:13.329Z,33.96
2023-05-18T19:53:40.279Z,33.83
2023-05-18T19:56:06.977Z,34.48
2023-05-18T19:58:33.727Z,34.68
2023-05-18T20:01:00.622Z,34.90
2023-05-18T20:03:27.623Z,35.29
2023-05-18T20:05:56.048Z,34.99
2023-05-18T20:08:22.888Z,35.17
2023-05-18T20:10:49.822Z,35.90
2023-05-18T20:13:16.632Z,36.43
2023-05-18T20:15:43.756Z,36.29
2023-05-18T20:18:10.751Z,37.00
2023-05-18T20:20:37.645Z,37.31
2023-05-18T20:23:06.737Z,37.66
2023-05-18T20:25:35.191Z,38.44
2023-05-18T20:28:03.531Z,39.54
2023-05-18T20:30:30.706Z,39.14
2023-05-18T20:33:03.656Z,39.84
2023-05-18T20:35:30.564Z,40.03
2023-05-18T20:37:59.649Z,39.80
2023-05-18T20:40:27.803Z,41.13
2023-05-18T20:42:54.542Z,40.88
2023-05-18T20:45:22.706Z,40.93
2023-05-18T20:47:52.867Z,41.58
2023-05-18T20:50:21.121Z,42.19
2023-05-18T20:52:47.963Z,43.17
2023-05-18T20:55:14.914Z,42.41
2023-05-18T20:57:46.131Z,42.83
2023-05-18T21:00:13.300Z,43.14
2023-05-18T21:02:41.574Z,42.84
2023-05-18T21:05:08.853Z,42.90
2023-05-18T21:07:37.827Z,42.47
2023-05-18T21:10:05.101Z,42.56
2023-05-18T21:12:32.618Z,42.80
2023-05-18T21:14:59.385Z,42.55
2023-05-18T21:17:26.280Z,42.04
2023-05-18T21:19:53.150Z,42.29
2023-05-18T21:22:19.962Z,42.05
2023-05-18T21:24:46.624Z,42.60
2023-05-18T21:27:13.444Z,42.61
2023-05-18T21:29:40.217Z,42.62
2023-05-18T21:32:07.172Z,42.02
2023-05-18T21:34:33.964Z,42.47
2023-05-18T21:37:01.193Z,42.45
2023-05-18T21:39:27.934Z,42.00
2023-05-18T21:41:54.779Z,42.61
2023-05-18T21:44:21.473Z,42.18
2023-05-18T21:46:48.354Z,42.27
2023-05-18T21:49:15.032Z,42.21
2023-05-18T21:51:41.678Z,42.30
2023-05-18T21:54:08.457Z,42.38
2023-05-18T21:56:36.696Z,42.42
2023-05-18T21:59:03.512Z,42.55
2023-05-18T22:01:30.393Z,42.86
2023-05-18T22:03:57.220Z,42.92
2023-05-18T22:06:24.050Z,42.95
2023-05-18T22:08:51.481Z,43.29
2023-05-18T22:11:18.289Z,42.93
2023-05-18T22:13:44.971Z,43.10
2023-05-18T22:16:11.959Z,43.10
2023-05-18T22:18:38.798Z,43.70
2023-05-18T22:21:05.705Z,43.43
2023-05-18T22:23:32.372Z,43.63
2023-05-18T22:25:59.052Z,42.85
2023-05-18T22:28:25.932Z,42.65
2023-05-18T22:30:52.773Z,42.87
2023-05-18T22:33:20.948Z,43.25
2023-05-18T22:35:50.662Z,42.91
2023-05-18T22:38:17.902Z,42.93
2023-05-18T22:40:45.411Z,42.87
2023-05-18T22:43:12.336Z,42.54
2023-05-18T22:45:39.165Z,43.29
2023-05-18T22:48:06.315Z,42.97
2023-05-18T22:50:33.407Z,42.35
2023-05-18T22:53:02.301Z,42.98
2023-05-18T22:55:29.110Z,43.45
2023-05-18T22:57:55.805Z,42.93
2023-05-18T23:00:22.882Z,42.65
2023-05-18T23:02:49.674Z,42.38
2023-05-18T23:05:17.169Z,42.83
2023-05-18T23:07:44.126Z,42.52
2023-05-18T23:10:12.164Z,42.92
2023-05-18T23:12:39.578Z,43.99
2023-05-18T23:15:07.413Z,42.45
2023-05-18T23:17:54.808Z,42.90
2023-05-18T23:20:22.864Z,42.68
2023-05-18T23:22:49.590Z,43.64
2023-05-18T23:25:16.522Z,44.02
2023-05-18T23:27:44.820Z,43.09
2023-05-18T23:30:11.825Z,44.68
2023-05-18T23:32:39.193Z,43.22
2023-05-18T23:35:06.590Z,42.82
2023-05-18T23:37:35.081Z,43.39
2023-05-18T23:40:04.659Z,43.57
2023-05-18T23:42:33.451Z,43.65
2023-05-18T23:45:00.735Z,43.70
2023-05-18T23:47:27.702Z,44.27
2023-05-18T23:49:54.893Z,44.55
2023-05-18T23:52:24.873Z,44.83
2023-05-18T23:54:55.501Z,45.15
2023-05-18T23:57:25.465Z,45.61
2023-05-18T23:59:52.472Z,46.20
